createdAt,value
2019-03-25T00:00:22.945Z,5.3
2019-03-25T00:01:22.354Z,5.3
2019-03-25T00:01:52.885Z,5.3
2019-03-25T00:02:23.622Z,5.3
2019-03-25T00:02:53.550Z,5.3
2019-03-25T00:03:24.275Z,5.3
2019-03-25T00:03:54.314Z,5.3
2019-03-25T00:05:18.182Z,5.3
2019-03-25T00:06:17.591Z,5.2
2019-03-25T00:07:16.491Z,5.2
2019-03-25T00:08:15.709Z,5.2
2019-03-25T00:09:14.837Z,5.2
2019-03-25T00:10:13.655Z,5.1
2019-03-25T00:11:12.973Z,5.1
2019-03-25T00:12:11.691Z,5.1
2019-03-25T00:12:42.223Z,5.1
2019-03-25T00:13:12.754Z,5.1
2019-03-25T00:13:43.382Z,5.1
2019-03-25T00:15:08.865Z,5
2019-03-25T00:16:08.277Z,5
2019-03-25T00:17:07.004Z,5
2019-03-25T00:18:06.316Z,4.9
2019-03-25T00:19:05.136Z,4.9
2019-03-25T00:20:04.461Z,4.9
2019-03-25T00:21:03.373Z,4.9
2019-03-25T00:22:02.588Z,4.8
2019-03-25T00:23:01.305Z,4.8
2019-03-25T00:23:31.832Z,4.8
2019-03-25T00:24:59.648Z,4.8
2019-03-25T00:25:58.772Z,4.8
2019-03-25T00:26:57.685Z,4.8
2019-03-25T00:27:56.592Z,4.8
2019-03-25T00:28:56.011Z,4.8
2019-03-25T00:29:54.825Z,4.8
2019-03-25T00:30:53.644Z,4.8
2019-03-25T00:32:51.792Z,4.8
2019-03-25T00:33:22.518Z,4.8
2019-03-25T00:33:52.654Z,4.8
2019-03-25T00:34:22.990Z,4.8
2019-03-25T00:34:53.710Z,4.8
2019-03-25T00:35:49.096Z,4.7
2019-03-25T00:36:48.131Z,4.7
2019-03-25T00:37:47.491Z,4.7
2019-03-25T00:38:46.111Z,4.7
2019-03-25T00:39:45.331Z,4.7
2019-03-25T00:40:43.944Z,4.7
2019-03-25T00:41:43.266Z,4.7
2019-03-25T00:42:42.584Z,4.7
2019-03-25T00:43:41.310Z,4.6
2019-03-25T00:44:40.435Z,4.6
2019-03-25T00:45:39.799Z,4.6
2019-03-25T00:46:38.668Z,4.6
2019-03-25T00:47:37.293Z,4.7
2019-03-25T00:48:36.709Z,4.7
2019-03-25T00:49:07.245Z,4.7
2019-03-25T00:49:37.779Z,4.7
2019-03-25T00:51:33.874Z,4.6
2019-03-25T00:53:32.197Z,4.6
2019-03-25T00:54:31.019Z,4.6
2019-03-25T00:55:29.933Z,4.5
2019-03-25T00:56:29.154Z,4.5
2019-03-25T00:57:27.964Z,4.5
2019-03-25T00:58:27.177Z,4.4
2019-03-25T00:58:57.821Z,4.4
2019-03-25T00:59:28.344Z,4.4
2019-03-25T00:59:58.989Z,4.4
2019-03-25T01:00:29.421Z,4.4
2019-03-25T01:01:24.219Z,4.3
2019-03-25T01:02:23.646Z,4.3
2019-03-25T01:04:21.241Z,4.2
2019-03-25T01:05:20.561Z,4.2
2019-03-25T01:06:19.478Z,4.2
2019-03-25T01:07:18.794Z,4.2
2019-03-25T01:08:17.733Z,4.2
2019-03-25T01:08:47.970Z,4.2
2019-03-25T01:09:17.995Z,4.2
2019-03-25T01:09:48.624Z,4.2
2019-03-25T01:11:14.512Z,4.1
2019-03-25T01:12:13.742Z,4.1
2019-03-25T01:13:13.152Z,4.1
2019-03-25T01:14:12.033Z,4.1
2019-03-25T01:15:10.704Z,4
2019-03-25T01:16:10.022Z,4
2019-03-25T01:17:08.638Z,4
2019-03-25T01:17:39.280Z,4
2019-03-25T01:18:18.472Z,4
2019-03-25T01:18:40.654Z,4
2019-03-25T01:19:10.934Z,4.1
2019-03-25T01:19:40.961Z,4.1
2019-03-25T01:20:11.871Z,4
2019-03-25T01:20:42.039Z,4
2019-03-25T01:23:03.401Z,4
2019-03-25T01:24:02.122Z,4
2019-03-25T01:25:03.584Z,4
2019-03-25T01:26:00.285Z,4
2019-03-25T01:26:59.704Z,4
2019-03-25T01:27:58.584Z,4
2019-03-25T01:28:28.702Z,4
2019-03-25T01:28:59.236Z,4
2019-03-25T01:29:29.773Z,4
2019-03-25T01:30:00.345Z,4
2019-03-25T01:30:30.990Z,4
2019-03-25T01:31:54.357Z,3.9
2019-03-25T01:32:53.698Z,3.9
2019-03-25T01:33:52.514Z,3.9
2019-03-25T01:34:51.831Z,3.9
2019-03-25T01:35:50.644Z,3.9
2019-03-25T01:36:50.059Z,3.8
2019-03-25T01:37:20.333Z,3.8
2019-03-25T01:37:50.501Z,3.9
2019-03-25T01:38:21.039Z,3.9
2019-03-25T01:38:51.471Z,3.8
2019-03-25T01:39:22.105Z,3.8
2019-03-25T01:39:52.828Z,3.8
2019-03-25T01:40:23.051Z,3.8
2019-03-25T01:41:45.020Z,3.8
2019-03-25T01:42:15.660Z,3.8
2019-03-25T01:42:45.567Z,3.8
2019-03-25T01:43:42.773Z,3.8
2019-03-25T01:44:41.992Z,3.8
2019-03-25T01:45:40.815Z,3.8
2019-03-25T01:47:38.916Z,3.8
2019-03-25T01:48:09.350Z,3.8
2019-03-25T01:48:39.593Z,3.8
2019-03-25T01:49:10.366Z,3.8
2019-03-25T01:49:40.708Z,3.8
2019-03-25T01:50:11.501Z,3.8
2019-03-25T01:50:41.730Z,3.8
2019-03-25T01:51:11.755Z,3.8
2019-03-25T01:51:42.384Z,3.9
2019-03-25T01:52:13.016Z,3.9
2019-03-25T01:53:33.469Z,3.9
2019-03-25T01:54:32.231Z,3.9
2019-03-25T01:55:31.642Z,3.9
2019-03-25T01:56:30.457Z,3.9
2019-03-25T01:57:29.264Z,3.9
2019-03-25T01:57:59.953Z,3.9
2019-03-25T01:58:30.582Z,3.8
2019-03-25T01:59:01.316Z,3.8
2019-03-25T01:59:31.357Z,3.8
2019-03-25T02:00:02.132Z,3.8
2019-03-25T02:00:32.359Z,3.8
2019-03-25T02:01:02.554Z,3.8
2019-03-25T02:02:24.501Z,3.8
2019-03-25T02:03:23.725Z,3.8
2019-03-25T02:04:22.644Z,3.8
2019-03-25T02:05:21.572Z,3.8
2019-03-25T02:06:20.984Z,3.8
2019-03-25T02:07:19.604Z,3.8
2019-03-25T02:08:18.977Z,3.8
2019-03-25T02:08:49.702Z,3.8
2019-03-25T02:09:19.824Z,3.8
2019-03-25T02:09:50.454Z,3.8
2019-03-25T02:10:21.113Z,3.9
2019-03-25T02:10:51.837Z,3.9
2019-03-25T02:12:14.810Z,4
2019-03-25T02:13:14.123Z,4
2019-03-25T02:15:11.962Z,4
2019-03-25T02:16:11.328Z,4
2019-03-25T02:17:10.046Z,4
2019-03-25T02:18:09.275Z,4
2019-03-25T02:19:08.004Z,4.1
2019-03-25T02:19:38.728Z,4.1
2019-03-25T02:20:08.872Z,4.1
2019-03-25T02:20:39.504Z,4.1
2019-03-25T02:22:05.004Z,4
2019-03-25T02:23:06.175Z,4
2019-03-25T02:24:03.047Z,4
2019-03-25T02:25:02.269Z,4
2019-03-25T02:26:01.080Z,4
2019-03-25T02:27:00.399Z,4
2019-03-25T02:27:59.211Z,4
2019-03-25T02:29:57.210Z,4
2019-03-25T02:30:27.968Z,4
2019-03-25T02:31:55.392Z,4
2019-03-25T02:32:54.824Z,4
2019-03-25T02:33:53.860Z,3.9
2019-03-25T02:34:52.715Z,3.9
2019-03-25T02:35:51.454Z,3.9
2019-03-25T02:36:50.860Z,3.9
2019-03-25T02:37:49.760Z,3.9
2019-03-25T02:38:48.684Z,3.9
2019-03-25T02:39:47.626Z,3.9
2019-03-25T02:40:17.762Z,3.9
2019-03-25T02:40:48.434Z,3.9
2019-03-25T02:41:20.443Z,3.9
2019-03-25T02:41:49.593Z,3.9
2019-03-25T02:42:44.913Z,3.9
2019-03-25T02:43:43.759Z,3.9
2019-03-25T02:44:43.319Z,3.9
2019-03-25T02:45:42.246Z,4
2019-03-25T02:46:41.179Z,4
2019-03-25T02:47:40.128Z,4
2019-03-25T02:48:39.102Z,4
2019-03-25T02:49:37.963Z,4
2019-03-25T02:50:37.211Z,4
2019-03-25T02:51:36.078Z,4
2019-03-25T02:52:35.011Z,4
2019-03-25T02:53:34.448Z,4
2019-03-25T02:54:33.166Z,4
2019-03-25T02:55:43.734Z,4
2019-03-25T02:56:02.922Z,4
2019-03-25T02:56:33.086Z,4
2019-03-25T02:57:30.504Z,4
2019-03-25T02:58:29.430Z,4
2019-03-25T02:59:28.167Z,3.9
2019-03-25T03:00:27.400Z,3.9
2019-03-25T03:01:26.235Z,3.9
2019-03-25T03:02:25.481Z,3.9
2019-03-25T03:03:24.261Z,3.9
2019-03-25T03:04:23.822Z,3.9
2019-03-25T03:05:22.775Z,3.9
2019-03-25T03:05:52.831Z,3.9
2019-03-25T03:06:23.495Z,4
2019-03-25T03:06:54.256Z,4
2019-03-25T03:07:24.826Z,4
2019-03-25T03:07:55.469Z,4
2019-03-25T03:08:26.117Z,4
2019-03-25T03:10:17.938Z,4
2019-03-25T03:11:16.910Z,4
2019-03-25T03:12:15.839Z,4
2019-03-25T03:13:14.850Z,4
2019-03-25T03:14:16.745Z,4.1
2019-03-25T03:15:12.572Z,4.1
2019-03-25T03:15:43.347Z,4.1
2019-03-25T03:16:13.527Z,4
2019-03-25T03:16:44.270Z,4
2019-03-25T03:18:09.895Z,4
2019-03-25T03:19:08.930Z,4
2019-03-25T03:20:07.996Z,4
2019-03-25T03:21:06.922Z,4.1
2019-03-25T03:22:05.861Z,4.1
2019-03-25T03:23:05.021Z,4.1
2019-03-25T03:24:03.907Z,4.1
2019-03-25T03:24:34.075Z,4.1
2019-03-25T03:25:04.662Z,4.2
2019-03-25T03:25:35.494Z,4.2
2019-03-25T03:26:05.648Z,4.2
2019-03-25T03:26:36.218Z,4.2
2019-03-25T03:27:06.994Z,4.2
2019-03-25T03:27:37.578Z,4.2
2019-03-25T03:28:59.176Z,4.2
2019-03-25T03:30:57.270Z,4.2
2019-03-25T03:31:56.329Z,4.2
2019-03-25T03:32:55.457Z,4.2
2019-03-25T03:33:54.546Z,4.2
2019-03-25T03:34:24.911Z,4.2
2019-03-25T03:34:55.287Z,4.2
2019-03-25T03:35:25.497Z,4.2
2019-03-25T03:35:55.737Z,4.1
2019-03-25T03:36:25.899Z,4.1
2019-03-25T03:36:56.654Z,4.1
2019-03-25T03:37:26.928Z,4.1
2019-03-25T03:37:57.209Z,4.1
2019-03-25T03:38:27.452Z,4.1
2019-03-25T03:39:48.558Z,4.1
2019-03-25T03:40:47.371Z,4.1
2019-03-25T03:41:46.616Z,4.1
2019-03-25T03:42:45.467Z,4.1
2019-03-25T03:44:43.774Z,4.1
2019-03-25T03:45:13.948Z,4.1
2019-03-25T03:45:44.601Z,4.1
2019-03-25T03:46:15.169Z,4.1
2019-03-25T03:46:45.992Z,4.1
2019-03-25T03:47:16.259Z,4.1
2019-03-25T03:47:46.916Z,4.1
2019-03-25T03:48:17.082Z,4.1
2019-03-25T03:50:37.966Z,4
2019-03-25T03:51:36.926Z,4.1
2019-03-25T03:52:35.941Z,4.1
2019-03-25T03:53:34.884Z,4.1
2019-03-25T03:54:33.850Z,4.1
2019-03-25T03:55:04.129Z,4.1
2019-03-25T03:55:34.292Z,4.1
2019-03-25T03:56:15.605Z,4.1
2019-03-25T03:56:35.694Z,4.1
2019-03-25T03:57:05.970Z,4.1
2019-03-25T03:57:36.011Z,4.1
2019-03-25T03:58:06.801Z,4.1
2019-03-25T04:00:28.213Z,4
2019-03-25T04:01:26.977Z,4
2019-03-25T04:02:26.451Z,4
2019-03-25T04:03:25.409Z,4
2019-03-25T04:04:24.369Z,4.1
2019-03-25T04:04:54.624Z,4.1
2019-03-25T04:05:24.910Z,4.2
2019-03-25T04:05:55.101Z,4.2
2019-03-25T04:06:25.977Z,4.2
2019-03-25T04:06:56.129Z,4.2
2019-03-25T04:07:26.900Z,4.2
2019-03-25T04:07:57.079Z,4.2
2019-03-25T04:09:19.565Z,4.2
2019-03-25T04:10:18.422Z,4.2
2019-03-25T04:11:17.336Z,4.2
2019-03-25T04:12:16.688Z,4.2
2019-03-25T04:13:15.625Z,4.1
2019-03-25T04:14:14.575Z,4.1
2019-03-25T04:15:13.529Z,4.1
2019-03-25T04:15:44.226Z,4.1
2019-03-25T04:16:14.283Z,4.1
2019-03-25T04:16:45.080Z,4.1
2019-03-25T04:17:15.333Z,4
2019-03-25T04:17:45.590Z,4
2019-03-25T04:19:09.825Z,4
2019-03-25T04:20:08.699Z,4
2019-03-25T04:21:07.665Z,4
2019-03-25T04:22:07.136Z,4
2019-03-25T04:23:06.082Z,4
2019-03-25T04:24:04.927Z,3.9
2019-03-25T04:25:03.908Z,3.9
2019-03-25T04:26:02.674Z,3.9
2019-03-25T04:26:33.239Z,3.9
2019-03-25T04:27:03.932Z,3.9
2019-03-25T04:27:34.699Z,3.9
2019-03-25T04:29:00.051Z,3.9
2019-03-25T04:29:58.815Z,3.9
2019-03-25T04:30:58.282Z,3.9
2019-03-25T04:31:57.126Z,3.9
2019-03-25T04:32:56.075Z,3.9
2019-03-25T04:33:55.513Z,3.9
2019-03-25T04:34:54.344Z,3.9
2019-03-25T04:35:52.986Z,3.9
2019-03-25T04:36:52.338Z,3.9
2019-03-25T04:37:23.097Z,3.9
2019-03-25T04:37:56.797Z,3.8
2019-03-25T04:38:24.038Z,3.8
2019-03-25T04:38:54.305Z,3.8
2019-03-25T04:39:49.120Z,3.8
2019-03-25T04:40:48.466Z,3.8
2019-03-25T04:42:46.598Z,3.8
2019-03-25T04:43:45.516Z,3.8
2019-03-25T04:44:44.246Z,3.9
2019-03-25T04:45:43.474Z,3.9
2019-03-25T04:46:42.308Z,3.9
2019-03-25T04:47:41.581Z,3.9
2019-03-25T04:48:40.925Z,3.9
2019-03-25T04:49:39.551Z,3.9
2019-03-25T04:50:38.977Z,3.9
2019-03-25T04:51:37.914Z,3.9
2019-03-25T04:52:36.856Z,3.9
2019-03-25T04:53:07.504Z,3.9
2019-03-25T04:53:37.553Z,3.9
2019-03-25T04:54:34.873Z,3.9
2019-03-25T04:55:33.698Z,3.9
2019-03-25T04:56:41.218Z,3.9
2019-03-25T04:57:31.997Z,3.9
2019-03-25T04:58:30.934Z,3.9
2019-03-25T04:59:29.565Z,3.9
2019-03-25T05:00:28.862Z,3.9
2019-03-25T05:01:28.192Z,3.9
2019-03-25T05:02:27.125Z,3.9
2019-03-25T05:02:57.359Z,3.9
2019-03-25T05:03:27.500Z,3.9
2019-03-25T05:03:58.246Z,3.9
2019-03-25T05:04:28.384Z,3.9
2019-03-25T05:05:24.095Z,3.9
2019-03-25T05:06:22.965Z,3.8
2019-03-25T05:07:22.289Z,3.8
2019-03-25T05:08:21.217Z,3.8
2019-03-25T05:09:20.151Z,3.8
2019-03-25T05:10:18.981Z,3.8
2019-03-25T05:11:29.989Z,3.8
2019-03-25T05:11:48.777Z,3.8
2019-03-25T05:12:19.530Z,3.8
2019-03-25T05:12:49.776Z,3.8
2019-03-25T05:13:19.928Z,3.8
2019-03-25T05:13:50.381Z,3.8
2019-03-25T05:15:14.279Z,3.8
2019-03-25T05:16:13.704Z,3.8
2019-03-25T05:17:12.346Z,3.8
2019-03-25T05:18:11.175Z,3.8
2019-03-25T05:19:10.503Z,3.9
2019-03-25T05:20:09.227Z,3.9
2019-03-25T05:21:08.358Z,3.9
2019-03-25T05:21:39.100Z,3.9
2019-03-25T05:22:12.236Z,3.9
2019-03-25T05:22:39.852Z,3.9
2019-03-25T05:23:10.495Z,3.9
2019-03-25T05:23:41.152Z,3.9
2019-03-25T05:24:11.692Z,3.9
2019-03-25T05:24:42.340Z,3.9
2019-03-25T05:26:03.637Z,3.9
2019-03-25T05:27:02.989Z,3.9
2019-03-25T05:28:01.723Z,4
2019-03-25T05:29:00.511Z,4
2019-03-25T05:29:59.743Z,4
2019-03-25T05:30:58.670Z,4
2019-03-25T05:31:28.706Z,4
2019-03-25T05:31:59.055Z,4
2019-03-25T05:32:29.692Z,4
2019-03-25T05:33:00.234Z,4
2019-03-25T05:33:30.776Z,4
2019-03-25T05:34:01.462Z,4
2019-03-25T05:34:32.015Z,4
2019-03-25T05:35:54.085Z,4.1
2019-03-25T05:36:53.007Z,4.1
2019-03-25T05:37:51.542Z,4.1
2019-03-25T05:38:51.012Z,4.1
2019-03-25T05:39:49.840Z,4.1
2019-03-25T05:40:49.174Z,4.1
2019-03-25T05:41:19.317Z,4.1
2019-03-25T05:41:49.763Z,4.1
2019-03-25T05:42:20.408Z,4.1
2019-03-25T05:42:51.044Z,4.1
2019-03-25T05:43:22.559Z,4.1
2019-03-25T05:43:52.105Z,4.1
2019-03-25T05:44:22.453Z,4.1
2019-03-25T05:44:52.914Z,4.1
2019-03-25T05:45:23.457Z,4.1
2019-03-25T05:46:43.324Z,4.2
2019-03-25T05:47:42.159Z,4.2
2019-03-25T05:48:41.295Z,4.2
2019-03-25T05:49:40.532Z,4.2
2019-03-25T05:50:39.452Z,4.2
2019-03-25T05:51:09.633Z,4.2
2019-03-25T05:51:40.198Z,4.2
2019-03-25T05:52:10.950Z,4.2
2019-03-25T05:52:41.182Z,4.3
2019-03-25T05:53:11.434Z,4.3
2019-03-25T05:53:42.067Z,4.3
2019-03-25T05:54:12.305Z,4.3
2019-03-25T05:54:42.435Z,4.3
2019-03-25T05:55:13.075Z,4.3
2019-03-25T05:56:33.345Z,4.3
2019-03-25T05:57:32.676Z,4.3
2019-03-25T05:58:31.554Z,4.3
2019-03-25T05:59:30.798Z,4.3
2019-03-25T06:00:29.516Z,4.3
2019-03-25T06:01:28.820Z,4.3
2019-03-25T06:01:59.454Z,4.3
2019-03-25T06:02:29.998Z,4.3
2019-03-25T06:03:00.450Z,4.3
2019-03-25T06:03:31.193Z,4.4
2019-03-25T06:04:01.742Z,4.4
2019-03-25T06:04:32.501Z,4.4
2019-03-25T06:05:02.838Z,4.4
2019-03-25T06:06:23.796Z,4.4
2019-03-25T06:07:22.932Z,4.4
2019-03-25T06:08:21.675Z,4.3
2019-03-25T06:09:21.002Z,4.4
2019-03-25T06:10:19.923Z,4.4
2019-03-25T06:11:19.363Z,4.4
2019-03-25T06:12:17.992Z,4.4
2019-03-25T06:12:48.643Z,4.4
2019-03-25T06:13:19.293Z,4.4
2019-03-25T06:13:49.836Z,4.4
2019-03-25T06:14:20.399Z,4.4
2019-03-25T06:14:51.046Z,4.4
2019-03-25T06:16:14.023Z,4.4
2019-03-25T06:17:13.354Z,4.4
2019-03-25T06:18:12.109Z,4.4
2019-03-25T06:19:11.529Z,4.4
2019-03-25T06:20:10.457Z,4.4
2019-03-25T06:21:09.405Z,4.4
2019-03-25T06:22:08.247Z,4.4
2019-03-25T06:23:07.578Z,4.4
2019-03-25T06:23:38.313Z,4.4
2019-03-25T06:24:09.895Z,4.4
2019-03-25T06:24:39.527Z,4.4
2019-03-25T06:27:15.567Z,4.4
2019-03-25T06:28:02.925Z,4.4
2019-03-25T06:29:01.864Z,4.4
2019-03-25T06:30:00.879Z,4.5
2019-03-25T06:30:59.406Z,4.5
2019-03-25T06:31:58.351Z,4.5
2019-03-25T06:32:57.693Z,4.5
2019-03-25T06:33:28.489Z,4.5
2019-03-25T06:33:58.532Z,4.5
2019-03-25T06:34:29.082Z,4.5
2019-03-25T06:35:55.095Z,4.5
2019-03-25T06:36:53.814Z,4.5
2019-03-25T06:38:52.123Z,4.5
2019-03-25T06:39:50.953Z,4.5
2019-03-25T06:40:50.636Z,4.5
2019-03-25T06:41:49.063Z,4.5
2019-03-25T06:43:47.332Z,4.5
2019-03-25T06:44:17.478Z,4.5
2019-03-25T06:44:48.032Z,4.5
2019-03-25T06:45:45.450Z,4.6
2019-03-25T06:46:44.288Z,4.6
2019-03-25T06:47:43.148Z,4.6
2019-03-25T06:48:42.382Z,4.6
2019-03-25T06:49:41.114Z,4.6
2019-03-25T06:50:40.540Z,4.6
2019-03-25T06:51:39.278Z,4.6
2019-03-25T06:52:38.512Z,4.6
2019-03-25T06:53:37.247Z,4.6
2019-03-25T06:54:36.687Z,4.6
2019-03-25T06:55:35.608Z,4.6
2019-03-25T06:56:35.040Z,4.6
2019-03-25T06:57:33.960Z,4.6
2019-03-25T06:58:32.688Z,4.6
2019-03-25T06:59:31.931Z,4.6
2019-03-25T07:00:02.684Z,4.6
2019-03-25T07:00:32.836Z,4.6
2019-03-25T07:01:30.169Z,4.6
2019-03-25T07:02:29.093Z,4.6
2019-03-25T07:03:30.396Z,4.6
2019-03-25T07:04:27.308Z,4.7
2019-03-25T07:05:26.228Z,4.7
2019-03-25T07:06:25.049Z,4.7
2019-03-25T07:07:24.428Z,4.7
2019-03-25T07:08:23.267Z,4.7
2019-03-25T07:08:53.315Z,4.7
2019-03-25T07:09:24.048Z,4.7
2019-03-25T07:09:54.194Z,4.7
2019-03-25T07:11:20.100Z,4.7
2019-03-25T07:12:19.135Z,4.8
2019-03-25T07:13:18.466Z,4.8
2019-03-25T07:14:17.100Z,4.8
2019-03-25T07:15:16.527Z,4.8
2019-03-25T07:16:15.398Z,4.8
2019-03-25T07:17:14.829Z,4.8
2019-03-25T07:18:13.463Z,4.8
2019-03-25T07:18:44.018Z,4.8
2019-03-25T07:19:14.686Z,4.8
2019-03-25T07:19:45.326Z,4.8
2019-03-25T07:20:15.468Z,4.8
2019-03-25T07:20:45.921Z,4.8
2019-03-25T07:22:09.911Z,4.7
2019-03-25T07:23:08.889Z,4.7
2019-03-25T07:24:07.519Z,4.7
2019-03-25T07:25:06.911Z,4.6
2019-03-25T07:26:05.948Z,4.6
2019-03-25T07:27:04.868Z,4.6
2019-03-25T07:28:04.248Z,4.6
2019-03-25T07:28:35.044Z,4.6
2019-03-25T07:29:05.001Z,4.6
2019-03-25T07:29:35.555Z,4.6
2019-03-25T07:30:06.203Z,4.6
2019-03-25T07:30:36.651Z,4.6
2019-03-25T07:31:06.992Z,4.6
2019-03-25T07:31:37.558Z,4.6
2019-03-25T07:32:59.336Z,4.6
2019-03-25T07:33:58.025Z,4.6
2019-03-25T07:34:57.359Z,4.6
2019-03-25T07:35:56.183Z,4.6
2019-03-25T07:36:55.603Z,4.6
2019-03-25T07:37:54.257Z,4.6
2019-03-25T07:38:24.820Z,4.6
2019-03-25T07:38:55.369Z,4.7
2019-03-25T07:39:26.120Z,4.7
2019-03-25T07:39:56.182Z,4.7
2019-03-25T07:40:26.825Z,4.7
2019-03-25T07:40:57.571Z,4.7
2019-03-25T07:41:27.805Z,4.7
2019-03-25T07:42:49.498Z,4.7
2019-03-25T07:43:48.739Z,4.7
2019-03-25T07:44:47.563Z,4.7
2019-03-25T07:45:46.793Z,4.7
2019-03-25T07:46:45.522Z,4.8
2019-03-25T07:47:44.953Z,4.8
2019-03-25T07:48:15.520Z,4.8
2019-03-25T07:48:46.257Z,4.8
2019-03-25T07:49:16.281Z,4.8
2019-03-25T07:50:41.774Z,4.9
2019-03-25T07:51:12.333Z,4.9
2019-03-25T07:51:42.980Z,4.9
2019-03-25T07:52:13.616Z,4.9
2019-03-25T07:53:39.159Z,4.9
2019-03-25T07:54:38.072Z,4.9
2019-03-25T07:55:37.396Z,4.9
2019-03-25T07:56:36.182Z,4.9
2019-03-25T07:57:35.584Z,4.9
2019-03-25T07:58:34.466Z,5
2019-03-25T07:59:04.836Z,5
2019-03-25T07:59:35.093Z,5
2019-03-25T08:00:15.369Z,5
2019-03-25T08:00:35.833Z,5
2019-03-25T08:01:06.548Z,5
2019-03-25T08:01:36.870Z,5
2019-03-25T08:02:07.075Z,5
2019-03-25T08:04:28.472Z,5.1
2019-03-25T08:05:27.877Z,5.1
2019-03-25T08:06:26.836Z,5.1
2019-03-25T08:07:25.781Z,5.1
2019-03-25T08:08:24.662Z,5.2
2019-03-25T08:09:05.315Z,5.2
2019-03-25T08:09:25.480Z,5.2
2019-03-25T08:09:55.652Z,5.2
2019-03-25T08:10:26.340Z,5.2
2019-03-25T08:10:57.143Z,5.2
2019-03-25T08:13:21.155Z,5.2
2019-03-25T08:15:17.988Z,5.2
2019-03-25T08:16:17.234Z,5.2
2019-03-25T08:17:15.962Z,5.2
2019-03-25T08:18:15.248Z,5.2
2019-03-25T08:19:14.079Z,5.3
2019-03-25T08:19:44.726Z,5.3
2019-03-25T08:20:14.970Z,5.3
2019-03-25T08:20:45.117Z,5.3
2019-03-25T08:21:15.861Z,5.3
2019-03-25T08:21:46.099Z,5.3
2019-03-25T08:23:10.598Z,5.4
2019-03-25T08:24:09.529Z,5.4
2019-03-25T08:25:08.357Z,5.4
2019-03-25T08:26:07.775Z,5.5
2019-03-25T08:27:06.711Z,5.5
2019-03-25T08:28:05.539Z,5.5
2019-03-25T08:29:04.978Z,5.6
2019-03-25T08:30:03.859Z,5.6
2019-03-25T08:30:34.007Z,5.6
2019-03-25T08:31:04.670Z,5.6
2019-03-25T08:31:35.309Z,5.6
2019-03-25T08:33:00.915Z,5.7
2019-03-25T08:34:00.237Z,5.7
2019-03-25T08:34:59.169Z,5.7
2019-03-25T08:35:57.984Z,5.7
2019-03-25T08:36:57.306Z,5.6
2019-03-25T08:40:53.384Z,5.7
2019-03-25T08:41:23.526Z,5.7
2019-03-25T08:42:51.556Z,5.7
2019-03-25T08:43:51.770Z,5.8
2019-03-25T08:44:49.685Z,5.9
2019-03-25T08:45:49.014Z,5.9
2019-03-25T08:46:47.739Z,6
2019-03-25T08:47:46.975Z,6
2019-03-25T08:48:45.706Z,6
2019-03-25T08:49:44.962Z,6
2019-03-25T08:50:43.886Z,6.1
2019-03-25T08:51:43.213Z,6
2019-03-25T08:52:13.946Z,6
2019-03-25T08:52:44.091Z,6
2019-03-25T08:53:41.312Z,6
2019-03-25T08:54:40.234Z,6
2019-03-25T08:55:39.284Z,6
2019-03-25T08:56:38.612Z,6
2019-03-25T08:57:08.748Z,6
2019-03-25T08:57:39.424Z,6
2019-03-25T08:58:36.753Z,6
2019-03-25T08:59:35.669Z,6
2019-03-25T09:00:34.407Z,6
2019-03-25T09:01:33.749Z,6.1
2019-03-25T09:02:32.596Z,6.1
2019-03-25T09:03:31.984Z,6.1
2019-03-25T09:04:30.612Z,6.2
2019-03-25T09:05:29.993Z,6.1
2019-03-25T09:06:28.840Z,6.2
2019-03-25T09:06:59.491Z,6.2
2019-03-25T09:08:27.005Z,6.2
2019-03-25T09:09:26.301Z,6.2
2019-03-25T09:10:25.030Z,6.1
2019-03-25T09:11:24.465Z,6.1
2019-03-25T09:12:23.419Z,6.2
2019-03-25T09:13:22.459Z,6.1
2019-03-25T09:14:21.190Z,6.1
2019-03-25T09:15:20.520Z,6.1
2019-03-25T09:16:19.801Z,6.1
2019-03-25T09:16:50.546Z,6.1
2019-03-25T09:18:17.263Z,6.2
2019-03-25T09:19:17.123Z,6.3
2019-03-25T09:20:15.959Z,6.3
2019-03-25T09:21:14.705Z,6.3
2019-03-25T09:22:13.934Z,6.3
2019-03-25T09:23:13.359Z,6.4
2019-03-25T09:24:12.093Z,6.4
2019-03-25T09:25:11.330Z,6.4
2019-03-25T09:26:10.167Z,6.4
2019-03-25T09:26:40.637Z,6.4
2019-03-25T09:27:11.284Z,6.4
2019-03-25T09:27:41.448Z,6.4
2019-03-25T09:28:25.286Z,6.4
2019-03-25T09:28:42.261Z,6.4
2019-03-25T09:30:06.573Z,6.5
2019-03-25T09:33:03.765Z,6.5
2019-03-25T09:34:03.095Z,6.5
2019-03-25T09:35:02.018Z,6.5
2019-03-25T09:36:01.617Z,6.5
2019-03-25T09:36:31.369Z,6.5
2019-03-25T09:37:01.427Z,6.4
2019-03-25T09:37:32.159Z,6.4
2019-03-25T09:38:02.013Z,6.5
2019-03-25T09:38:32.748Z,6.5
2019-03-25T09:39:02.985Z,6.5
2019-03-25T09:39:33.223Z,6.5
2019-03-25T09:40:56.612Z,6.3
2019-03-25T09:41:55.538Z,6.2
2019-03-25T09:42:54.456Z,6.2
2019-03-25T09:43:53.602Z,6.2
2019-03-25T09:44:52.932Z,6.2
2019-03-25T09:45:51.910Z,6.2
2019-03-25T09:46:22.142Z,6.2
2019-03-25T09:46:52.785Z,6.2
2019-03-25T09:47:23.014Z,6.2
2019-03-25T09:47:53.667Z,6.3
2019-03-25T09:48:24.117Z,6.3
2019-03-25T09:48:54.870Z,6.3
2019-03-25T09:49:25.025Z,6.3
2019-03-25T09:49:55.331Z,6.3
2019-03-25T09:50:25.566Z,6.3
2019-03-25T09:51:45.931Z,6.4
2019-03-25T09:52:45.175Z,6.4
2019-03-25T09:53:44.412Z,6.4
2019-03-25T09:54:43.338Z,6.3
2019-03-25T09:55:42.669Z,6.4
2019-03-25T09:56:13.207Z,6.4
2019-03-25T09:56:43.758Z,6.4
2019-03-25T09:57:14.407Z,6.4
2019-03-25T09:57:44.943Z,6.4
2019-03-25T09:58:15.699Z,6.4
2019-03-25T09:58:45.636Z,6.4
2019-03-25T09:59:16.213Z,6.4
2019-03-25T09:59:46.859Z,6.5
2019-03-25T10:00:17.400Z,6.5
2019-03-25T10:01:36.758Z,6.6
2019-03-25T10:02:36.188Z,6.8
2019-03-25T10:03:35.008Z,6.8
2019-03-25T10:04:34.341Z,7
2019-03-25T10:05:33.288Z,7
2019-03-25T10:06:32.510Z,7.1
2019-03-25T10:07:03.159Z,7.1
2019-03-25T10:07:33.306Z,7.1
2019-03-25T10:08:04.035Z,7.1
2019-03-25T10:08:34.283Z,7.2
2019-03-25T10:09:04.776Z,7.2
2019-03-25T10:09:35.417Z,7.3
2019-03-25T10:10:06.057Z,7.3
2019-03-25T10:11:27.933Z,7.4
2019-03-25T10:12:26.764Z,7.4
2019-03-25T10:13:26.007Z,7.4
2019-03-25T10:14:24.742Z,7.4
2019-03-25T10:15:24.061Z,7.5
2019-03-25T10:18:20.957Z,7.2
2019-03-25T10:18:51.502Z,7.2
2019-03-25T10:19:22.152Z,7.1
2019-03-25T10:19:52.703Z,7.1
2019-03-25T10:21:18.717Z,7.1
2019-03-25T10:22:17.554Z,7.2
2019-03-25T10:23:16.694Z,7.2
2019-03-25T10:24:16.309Z,7.3
2019-03-25T10:25:14.669Z,7.3
2019-03-25T10:26:13.902Z,7.4
2019-03-25T10:27:13.253Z,7.3
2019-03-25T10:27:43.962Z,7.3
2019-03-25T10:28:14.515Z,7.3
2019-03-25T10:28:50.425Z,7.3
2019-03-25T10:29:15.537Z,7.3
2019-03-25T10:29:45.984Z,7.3
2019-03-25T10:31:09.497Z,7.3
2019-03-25T10:32:08.278Z,7.2
2019-03-25T10:33:07.428Z,7.2
2019-03-25T10:34:06.665Z,7.2
2019-03-25T10:35:05.400Z,7.1
2019-03-25T10:36:04.725Z,7.1
2019-03-25T10:37:04.149Z,7.1
2019-03-25T10:38:02.979Z,7
2019-03-25T10:38:33.421Z,7
2019-03-25T10:39:03.970Z,7
2019-03-25T10:39:34.317Z,7
2019-03-25T10:41:00.122Z,7
2019-03-25T10:41:59.466Z,7
2019-03-25T10:42:58.192Z,7
2019-03-25T10:43:57.531Z,7.1
2019-03-25T10:44:56.274Z,7.2
2019-03-25T10:45:55.500Z,7.2
2019-03-25T10:46:54.621Z,7.3
2019-03-25T10:47:53.755Z,7.3
2019-03-25T10:48:53.101Z,7.3
2019-03-25T10:49:23.640Z,7.3
2019-03-25T10:50:51.176Z,7.3
2019-03-25T10:51:50.096Z,7.3
2019-03-25T10:52:49.335Z,7.2
2019-03-25T10:53:48.156Z,7.2
2019-03-25T10:54:48.398Z,7.2
2019-03-25T10:55:46.752Z,7.3
2019-03-25T10:56:50.504Z,7.3
2019-03-25T10:57:44.897Z,7.4
2019-03-25T10:58:43.624Z,7.4
2019-03-25T10:59:42.953Z,7.4
2019-03-25T11:00:41.706Z,7.5
2019-03-25T11:01:41.045Z,7.4
2019-03-25T11:02:39.872Z,7.4
2019-03-25T11:03:39.307Z,7.4
2019-03-25T11:04:38.243Z,7.5
2019-03-25T11:05:08.285Z,7.5
2019-03-25T11:05:38.737Z,7.6
2019-03-25T11:06:36.484Z,7.6
2019-03-25T11:07:36.757Z,7.6
2019-03-25T11:08:34.757Z,7.6
2019-03-25T11:09:33.637Z,7.7
2019-03-25T11:10:33.069Z,7.7
2019-03-25T11:11:31.791Z,7.7
2019-03-25T11:12:31.115Z,7.7
2019-03-25T11:13:29.740Z,7.7
2019-03-25T11:14:29.063Z,7.7
2019-03-25T11:14:59.707Z,7.7
2019-03-25T11:15:30.443Z,7.7
2019-03-25T11:16:00.473Z,7.7
2019-03-25T11:16:31.124Z,7.7
2019-03-25T11:17:26.230Z,7.8
2019-03-25T11:18:25.455Z,7.9
2019-03-25T11:19:24.782Z,7.9
2019-03-25T11:20:23.728Z,7.9
2019-03-25T11:21:23.182Z,7.8
2019-03-25T11:22:22.017Z,7.7
2019-03-25T11:23:20.932Z,7.6
2019-03-25T11:24:20.164Z,7.6
2019-03-25T11:24:50.810Z,7.6
2019-03-25T11:25:21.488Z,7.5
2019-03-25T11:25:52.133Z,7.5
2019-03-25T11:27:17.537Z,7.6
2019-03-25T11:28:16.906Z,7.6
2019-03-25T11:29:15.727Z,7.7
2019-03-25T11:30:14.591Z,7.6
2019-03-25T11:32:12.791Z,7.6
2019-03-25T11:33:12.218Z,7.4
2019-03-25T11:34:10.987Z,7.5
2019-03-25T11:34:41.545Z,7.5
2019-03-25T11:35:12.092Z,7.5
2019-03-25T11:35:42.538Z,7.5
2019-03-25T11:37:08.665Z,7.5
2019-03-25T11:37:38.763Z,7.5
2019-03-25T11:38:09.405Z,7.6
2019-03-25T11:39:06.736Z,7.6
2019-03-25T11:40:05.653Z,7.6
2019-03-25T11:41:04.992Z,7.6
2019-03-25T11:42:03.839Z,7.7
2019-03-25T11:43:03.167Z,7.7
2019-03-25T11:46:00.407Z,7.8
2019-03-25T11:46:30.552Z,7.8
2019-03-25T11:47:01.200Z,7.9
2019-03-25T11:47:31.843Z,7.9
2019-03-25T11:48:57.651Z,8
2019-03-25T11:49:56.374Z,8.1
2019-03-25T11:50:55.707Z,8.1
2019-03-25T11:51:54.840Z,8.2
2019-03-25T11:52:54.070Z,8.2
2019-03-25T11:53:53.303Z,8.1
2019-03-25T11:54:23.851Z,8.1
2019-03-25T11:56:50.393Z,7.9
2019-03-25T11:57:21.044Z,7.9
2019-03-25T11:57:51.284Z,7.9
2019-03-25T11:58:21.828Z,7.9
2019-03-25T12:00:46.411Z,8
2019-03-25T12:01:46.162Z,8